Time;durP1;ratioP1;P1;durP2;ratioP2;P2;SDS_P1;SDS_P2;PMS_P1;PMS_P2;Temp;Humidity;BMP_temperature;BMP_pressure;BME280_temperature;BME280_humidity;BME280_pressure;Samples;Min_cycle;Max_cycle;Signal;HPM_P1;HPM_P2
2022/10/02 00:00:21;;;;;;;;;4.67;4.00;;;;;17.81;100.00;101155.38;4837210;29;46680;-84
2022/10/02 00:02:52;;;;;;;;;6.33;6.33;;;;;17.83;100.00;101156.28;4853672;29;45385;-84
2022/10/02 00:05:27;;;;;;;;;3.00;2.33;;;;;17.85;100.00;101162.53;4852768;29;45582;-84
2022/10/02 00:08:15;;;;;;;;;4.00;3.67;;;;;17.86;100.00;101158.06;4836096;29;45861;-84
2022/10/02 00:10:46;;;;;;;;;5.00;5.00;;;;;17.84;100.00;101154.50;4834202;29;47987;-84
2022/10/02 00:13:16;;;;;;;;;4.33;2.00;;;;;17.84;100.00;101171.53;4850447;29;45428;-84
2022/10/02 00:15:43;;;;;;;;;4.00;3.00;;;;;17.85;100.00;101156.28;4834557;29;45352;-84
2022/10/02 00:18:13;;;;;;;;;6.67;5.00;;;;;17.86;100.00;101177.78;4833646;29;45323;-84
2022/10/02 00:20:48;;;;;;;;;3.00;3.00;;;;;17.87;100.00;101178.69;4849409;29;45631;-83
2022/10/02 00:23:23;;;;;;;;;4.67;3.67;;;;;17.89;100.00;101175.06;4837024;29;44870;-85
2022/10/02 00:26:06;;;;;;;;;4.50;3.00;;;;;17.89;100.00;101171.50;4852760;29;45420;-84
2022/10/02 00:29:07;;;;;;;;;5.33;4.00;;;;;17.90;100.00;101167.91;4870127;29;44891;-83
2022/10/02 00:31:47;;;;;;;;;5.25;5.25;;;;;17.83;100.00;101158.06;4870523;28;45543;-84
2022/10/02 00:34:25;;;;;;;;;3.00;3.00;;;;;17.85;100.00;101164.34;4870450;29;45413;-84
2022/10/02 00:36:59;;;;;;;;;6.00;3.25;;;;;17.81;100.00;101160.75;4854906;29;45554;-84
2022/10/02 00:39:53;;;;;;;;;4.00;4.00;;;;;17.84;100.00;101176.91;4870379;29;45407;-84
2022/10/02 00:42:47;;;;;;;;;4.00;4.00;;;;;17.85;100.00;101178.69;4815393;29;46961;-84
2022/10/02 00:45:15;;;;;;;;;3.25;3.25;;;;;17.80;100.00;101170.63;4830864;29;44988;-84
2022/10/02 00:48:05;;;;;;;;;3.00;3.00;;;;;17.83;100.00;101179.59;4833001;29;45641;-84
2022/10/02 00:50:39;;;;;;;;;4.25;3.75;;;;;17.87;100.00;101184.06;4833525;29;45363;-83
2022/10/02 00:53:23;;;;;;;;;2.75;2.75;;;;;17.88;100.00;101193.94;4834072;29;46347;-84
2022/10/02 00:56:06;;;;;;;;;4.50;4.00;;;;;17.88;100.00;101193.94;4834562;29;45513;-84
2022/10/02 00:58:56;;;;;;;;;2.50;2.50;;;;;17.85;100.00;101189.44;4834405;29;45432;-84
2022/10/02 01:01:35;;;;;;;;;3.25;2.50;;;;;17.82;100.00;101184.06;4821689;29;45024;-84
2022/10/02 01:04:07;;;;;;;;;4.00;4.00;;;;;17.82;100.00;101185.88;4820242;29;46788;-84
2022/10/02 01:06:39;;;;;;;;;3.33;3.33;;;;;17.82;100.00;101188.56;4826334;29;44986;-84
2022/10/02 01:09:04;;;;;;;;;5.75;5.25;;;;;17.80;100.00;101178.69;4854287;29;44942;-84
2022/10/02 01:11:33;;;;;;;;;6.00;5.00;;;;;17.82;100.00;101184.06;4855462;28;45538;-84
2022/10/02 01:13:59;;;;;;;;;4.75;4.75;;;;;17.76;100.00;101171.56;4854545;28;45532;-84
2022/10/02 01:16:25;;;;;;;;;4.00;3.50;;;;;17.71;100.00;101165.31;4839602;29;45743;-85
2022/10/02 01:18:50;;;;;;;;;3.33;3.00;;;;;17.70;100.00;101173.44;4869154;29;44953;-84
2022/10/02 01:21:41;;;;;;;;;4.00;4.00;;;;;17.70;100.00;101176.13;4878002;29;45506;-84
2022/10/02 01:24:31;;;;;;;;;6.00;3.00;;;;;17.68;100.00;101173.44;4893466;28;45414;-85
2022/10/02 01:26:57;;;;;;;;;3.00;3.00;;;;;17.66;100.00;101168.97;4876524;28;45366;-85
2022/10/02 01:29:23;;;;;;;;;3.00;3.00;;;;;17.68;100.00;101176.13;4876646;28;45446;-85
2022/10/02 01:31:48;;;;;;;;;5.00;5.00;;;;;17.68;100.00;101170.75;4890498;29;45466;-85
2022/10/02 01:34:15;;;;;;;;;2.00;2.00;;;;;17.67;100.00;101173.44;4875889;29;46928;-84
2022/10/02 01:36:40;;;;;;;;;2.33;2.33;;;;;17.57;100.00;101161.84;4889361;29;44761;-85
2022/10/02 01:39:06;;;;;;;;;3.67;2.33;;;;;17.54;100.00;101170.84;4873679;29;45452;-85
2022/10/02 01:41:40;;;;;;;;;5.00;4.00;;;;;17.55;100.00;101169.03;4890029;29;45360;-85
2022/10/02 01:44:05;;;;;;;;;3.50;2.50;;;;;17.54;100.00;101161.91;4887001;29;47247;-85
2022/10/02 01:46:34;;;;;;;;;2.67;2.67;;;;;17.55;100.00;101171.72;4871556;29;45423;-85
2022/10/02 01:49:25;;;;;;;;;2.00;2.00;;;;;17.51;100.00;101161.91;4871410;29;45420;-84
2022/10/02 01:52:21;;;;;;;;;3.50;3.50;;;;;17.55;100.00;101156.50;4891425;29;45688;-84
2022/10/02 01:54:52;;;;;;;;;2.00;2.00;;;;;17.56;100.00;101160.97;4890323;29;47009;-84
2022/10/02 01:57:43;;;;;;;;;5.00;3.00;;;;;17.58;100.00;101158.28;4889657;29;45444;-84
2022/10/02 02:00:16;;;;;;;;;6.00;3.00;;;;;17.56;100.00;101154.72;4872796;29;45505;-85
2022/10/02 02:03:00;;;;;;;;;4.00;2.67;;;;;17.57;100.00;101156.47;4890358;29;44928;-84
2022/10/02 02:05:53;;;;;;;;;2.25;2.00;;;;;17.57;100.00;101160.09;4873080;29;46747;-85
2022/10/02 02:08:36;;;;;;;;;2.67;2.67;;;;;17.55;100.00;101158.28;4888494;29;45366;-84
2022/10/02 02:11:17;;;;;;;;;3.75;2.00;;;;;17.53;100.00;101139.50;4890701;29;45403;-85
2022/10/02 02:13:48;;;;;;;;;2.00;2.00;;;;;17.55;100.00;101150.22;4873512;29;45423;-84
2022/10/02 02:16:13;;;;;;;;;4.25;3.50;;;;;17.53;100.00;101149.34;4887660;29;47180;-84
2022/10/02 02:18:42;;;;;;;;;3.00;2.00;;;;;17.51;100.00;101145.78;4873648;29;45349;-84
2022/10/02 02:21:39;;;;;;;;;3.00;2.00;;;;;17.49;100.00;101137.75;4888573;28;45926;-84
2022/10/02 02:24:13;;;;;;;;;2.00;2.00;;;;;17.44;100.00;101144.06;4871480;29;45468;-85
2022/10/02 02:26:42;;;;;;;;;1.00;1.00;;;;;17.43;100.00;101136.88;4872467;29;47004;-84
2022/10/02 02:29:08;;;;;;;;;1.00;1.00;;;;;17.50;100.00;101138.63;4889199;29;44877;-85
2022/10/02 02:31:42;;;;;;;;;0.25;0.25;;;;;17.53;100.00;101133.19;4874046;29;44760;-85
2022/10/02 02:34:15;;;;;;;;;1.00;1.00;;;;;17.51;100.00;101119.78;4886907;29;45867;-85
2022/10/02 02:36:46;;;;;;;;;0.75;0.75;;;;;17.57;100.00;101122.44;4872989;29;47952;-85
2022/10/02 02:39:38;;;;;;;;;2.00;2.00;;;;;17.62;100.00;101130.44;4873273;29;45381;-85
2022/10/02 02:42:08;;;;;;;;;2.00;2.00;;;;;17.59;100.00;101125.06;4888015;29;45267;-84
2022/10/02 02:44:44;;;;;;;;;1.00;1.00;;;;;17.61;100.00;101120.56;4883591;29;44899;-85
2022/10/02 02:47:19;;;;;;;;;1.00;1.00;;;;;17.62;100.00;101118.81;4887997;29;45264;-84
2022/10/02 02:49:47;;;;;;;;;1.00;1.00;;;;;17.64;100.00;101115.19;4885545;28;45428;-84
2022/10/02 02:52:24;;;;;;;;;1.00;1.00;;;;;17.64;100.00;101119.69;4872469;29;45486;-84
2022/10/02 02:54:57;;;;;;;;;1.75;1.75;;;;;17.63;100.00;101121.47;4872056;29;45436;-83
2022/10/02 02:57:31;;;;;;;;;2.00;2.00;;;;;17.56;100.00;101099.13;4887575;29;46943;-84
2022/10/02 02:59:58;;;;;;;;;3.50;2.00;;;;;17.56;100.00;101096.44;4856936;29;45418;-84
2022/10/02 03:02:25;;;;;;;;;3.00;2.00;;;;;17.62;100.00;101100.88;4872942;29;45403;-84
2022/10/02 03:04:51;;;;;;;;;2.00;2.00;;;;;17.59;100.00;101095.50;4889329;29;45734;-84
2022/10/02 03:07:16;;;;;;;;;1.75;1.75;;;;;17.59;100.00;101103.56;4887280;29;47231;-83
2022/10/02 03:09:57;;;;;;;;;3.00;1.00;;;;;17.56;100.00;101095.53;4868496;29;45723;-83
2022/10/02 03:12:41;;;;;;;;;1.00;1.00;;;;;17.59;100.00;101095.50;4869206;29;45392;-84
2022/10/02 03:15:14;;;;;;;;;1.00;1.00;;;;;17.62;100.00;101102.66;4853525;28;45480;-84
2022/10/02 03:17:49;;;;;;;;;1.00;1.00;;;;;17.59;100.00;101096.41;4870403;29;46429;-84
2022/10/02 03:20:38;;;;;;;;;1.75;1.00;;;;;17.57;100.00;101089.25;4870264;29;45443;-84
2022/10/02 03:23:09;;;;;;;;;2.00;2.00;;;;;17.56;100.00;101095.53;4871550;28;45395;-84
2022/10/02 03:25:50;;;;;;;;;2.00;2.00;;;;;17.51;100.00;101076.75;4872247;29;45605;-84
2022/10/02 03:28:17;;;;;;;;;0.75;0.75;;;;;17.58;100.00;101088.34;4856358;29;46683;-84
2022/10/02 03:30:44;;;;;;;;;1.00;1.00;;;;;17.57;100.00;101079.41;4871563;29;45375;-84
2022/10/02 03:33:14;;;;;;;;;1.25;1.00;;;;;17.59;100.00;101080.28;4871377;28;44866;-84
2022/10/02 03:35:41;;;;;;;;;1.00;1.00;;;;;17.55;100.00;101077.59;4869900;28;45366;-85
2022/10/02 03:38:10;;;;;;;;;1.00;1.00;;;;;17.56;100.00;101087.47;4857603;29;47635;-85
2022/10/02 03:40:36;;;;;;;;;2.00;0.50;;;;;17.59;100.00;101076.66;4874986;28;45388;-85
2022/10/02 03:43:02;;;;;;;;;0.50;0.50;;;;;17.66;100.00;101088.28;4873716;28;45517;-85
2022/10/02 03:45:28;;;;;;;;;0.50;0.25;;;;;17.68;100.00;101081.09;4874728;28;44946;-85
2022/10/02 03:47:54;;;;;;;;;1.00;1.00;;;;;17.68;100.00;101086.47;4858270;28;46730;-85
2022/10/02 03:50:20;;;;;;;;;0.25;0.00;;;;;17.70;100.00;101088.22;4875537;29;45448;-85
2022/10/02 03:52:51;;;;;;;;;1.00;1.00;;;;;17.72;100.00;101078.34;4870502;28;45410;-84
2022/10/02 03:55:23;;;;;;;;;0.00;0.00;;;;;17.78;100.00;101094.44;4874348;29;45388;-85
2022/10/02 03:57:50;;;;;;;;;1.00;0.75;;;;;17.80;100.00;101089.03;4858069;28;47790;-85
2022/10/02 04:00:35;;;;;;;;;0.00;0.00;;;;;17.75;100.00;101077.41;4874649;29;45497;-85
2022/10/02 04:03:09;;;;;;;;;1.50;0.00;;;;;17.79;100.00;101084.53;4874079;28;44933;-85
2022/10/02 04:05:46;;;;;;;;;0.00;0.00;;;;;17.76;100.00;101072.03;4875846;28;45403;-84
2022/10/02 04:08:39;;;;;;;;;0.00;0.00;;;;;17.80;100.00;101083.66;4875822;29;44993;-85
2022/10/02 04:11:11;;;;;;;;;1.00;1.00;;;;;17.79;100.00;101085.47;4856132;29;45371;-85
2022/10/02 04:13:48;;;;;;;;;0.00;0.00;;;;;17.75;100.00;101086.41;4840086;29;45429;-85
2022/10/02 04:16:23;;;;;;;;;0.00;0.00;;;;;17.74;100.00;101083.72;4856567;29;45373;-85
2022/10/02 04:18:57;;;;;;;;;0.50;0.50;;;;;17.73;100.00;101090.91;4856486;28;45457;-85
2022/10/02 04:21:42;;;;;;;;;0.25;0.25;;;;;17.69;100.00;101086.44;4857458;29;45904;-85
2022/10/02 04:24:28;;;;;;;;;0.00;0.00;;;;;17.62;100.00;101073.97;4856292;29;45422;-84
2022/10/02 04:27:17;;;;;;;;;0.00;0.00;;;;;17.59;100.00;101074.91;4858396;28;44811;-84
2022/10/02 04:29:50;;;;;;;;;0.00;0.00;;;;;17.65;100.00;101084.69;4841679;29;47159;-85
2022/10/02 04:32:38;;;;;;;;;0.00;0.00;;;;;17.65;100.00;101084.69;4840579;29;46187;-84
2022/10/02 04:35:16;;;;;;;;;0.00;0.00;;;;;17.65;100.00;101079.28;4857208;28;45432;-84
2022/10/02 04:38:09;;;;;;;;;0.00;0.00;;;;;17.65;100.00;101084.69;4837182;29;45359;-83
2022/10/02 04:40:42;;;;;;;;;0.25;0.25;;;;;17.68;100.00;101095.44;4855999;29;45096;-84
2022/10/02 04:43:22;;;;;;;;;0.00;0.00;;;;;17.69;100.00;101085.53;4838752;29;45470;-84
2022/10/02 04:46:09;;;;;;;;;0.00;0.00;;;;;17.70;100.00;101084.66;4855373;29;45312;-85
2022/10/02 04:48:57;;;;;;;;;0.00;0.00;;;;;17.63;100.00;101081.13;4855829;29;45408;-85
2022/10/02 04:51:58;;;;;;;;;0.00;0.00;;;;;17.67;100.00;101092.75;4854090;29;47567;-83
2022/10/02 04:54:36;;;;;;;;;0.00;0.00;;;;;17.69;100.00;101091.81;4871800;29;45347;-85
2022/10/02 04:57:30;;;;;;;;;0.50;0.00;;;;;17.71;100.00;101098.06;4855215;29;45421;-85
2022/10/02 05:00:02;;;;;;;;;0.00;0.00;;;;;17.69;100.00;101099.88;4800360;29;44893;-84
2022/10/02 05:02:50;;;;;;;;;0.00;0.00;;;;;17.73;100.00;101098.97;4801020;29;47011;-85
2022/10/02 05:05:53;;;;;;;;;0.50;0.00;;;;;17.71;100.00;101095.38;4800341;29;45425;-84
2022/10/02 05:08:19;;;;;;;;;0.00;0.00;;;;;17.73;100.00;101090.91;4814906;29;44846;-85
2022/10/02 05:11:05;;;;;;;;;0.00;0.00;;;;;17.72;100.00;101096.28;4816454;29;45483;-86
2022/10/02 05:14:04;;;;;;;;;0.00;0.00;;;;;17.71;100.00;101100.75;4817290;29;47171;-82
2022/10/02 05:16:51;;;;;;;;;0.00;0.00;;;;;17.73;100.00;101108.81;4817109;29;45516;-85
2022/10/02 05:19:40;;;;;;;;;0.00;0.00;;;;;17.74;100.00;101113.31;4831385;29;45454;-85
2022/10/02 05:22:14;;;;;;;;;0.00;0.00;;;;;17.75;100.00;101116.00;4820043;29;44978;-84
2022/10/02 05:24:45;;;;;;;;;0.00;0.00;;;;;17.73;100.00;101109.72;4819411;29;47756;-84
2022/10/02 05:27:49;;;;;;;;;0.00;0.00;;;;;17.72;100.00;101109.75;4835633;29;45540;-85
2022/10/02 05:30:18;;;;;;;;;0.00;0.00;;;;;17.66;100.00;101105.31;4796188;29;44919;-87
2022/10/02 05:32:49;;;;;;;;;0.50;0.50;;;;;17.58;100.00;101104.50;4796662;29;45430;-86
2022/10/02 05:35:33;;;;;;;;;1.00;0.00;;;;;17.50;100.00;101112.63;4782330;29;46382;-84
2022/10/02 05:38:05;;;;;;;;;0.00;0.00;;;;;17.46;100.00;101118.94;4797957;29;45397;-83
2022/10/02 05:40:37;;;;;;;;;0.00;0.00;;;;;17.42;100.00;101122.53;4798690;29;45069;-85
2022/10/02 05:43:28;;;;;;;;;0.00;0.00;;;;;17.33;100.00;101118.13;4809199;29;45440;-84
2022/10/02 05:46:22;;;;;;;;;0.00;0.00;;;;;17.37;100.00;101129.75;4816934;29;47047;-84
2022/10/02 05:49:01;;;;;;;;;0.00;0.00;;;;;17.34;100.00;101129.78;4830982;29;45464;-83
2022/10/02 05:51:59;;;;;;;;;0.00;0.00;;;;;17.37;100.00;101138.72;4818666;29;45242;-87
2022/10/02 05:55:00;;;;;;;;;0.00;0.00;;;;;17.36;100.00;101128.84;4816230;29;45550;-84
2022/10/02 05:57:46;;;;;;;;;0.00;0.00;;;;;17.45;100.00;101145.81;4799165;29;48420;-85
2022/10/02 06:00:59;;;;;;;;;0.00;0.00;;;;;17.49;100.00;101139.50;4827259;29;45423;-85
2022/10/02 06:03:40;;;;;;;;;0.50;0.00;;;;;17.36;100.00;101120.78;4800791;29;45514;-84
2022/10/02 06:06:15;;;;;;;;;0.75;0.75;;;;;17.48;100.00;101144.00;4817539;29;45516;-84
2022/10/02 06:08:45;;;;;;;;;0.00;0.00;;;;;17.47;100.00;101150.31;4831664;29;45328;-83
2022/10/02 06:11:31;;;;;;;;;0.00;0.00;;;;;17.42;100.00;101145.84;4818279;29;45507;-84
2022/10/02 06:14:15;;;;;;;;;0.00;0.00;;;;;17.45;100.00;101143.13;4834346;29;45538;-83
2022/10/02 06:16:51;;;;;;;;;0.00;0.00;;;;;17.44;100.00;101152.13;4834989;29;45390;-83
2022/10/02 06:19:26;;;;;;;;;0.00;0.00;;;;;17.42;100.00;101144.06;4835053;29;47004;-83
2022/10/02 06:21:58;;;;;;;;;0.00;0.00;;;;;17.22;100.00;101114.63;4818418;29;45735;-84
2022/10/02 06:24:38;;;;;;;;;0.00;0.00;;;;;17.43;100.00;101136.88;4818040;29;45433;-83
2022/10/02 06:27:14;;;;;;;;;0.00;0.00;;;;;17.44;100.00;101127.91;4820303;29;45463;-84
2022/10/02 06:29:48;;;;;;;;;0.00;0.00;;;;;17.52;100.00;101131.44;4820430;29;46899;-84
2022/10/02 06:35:38;;;;;;;;;0.00;0.00;;;;;17.78;100.00;101142.84;4838103;29;45998;-83
2022/10/02 06:38:25;;;;;;;;;0.00;0.00;;;;;17.87;100.00;101139.19;4880757;28;45510;-83
2022/10/02 06:41:19;;;;;;;;;0.00;0.00;;;;;17.95;100.00;101139.13;4877996;28;45482;-82
2022/10/02 06:43:51;;;;;;;;;0.00;0.00;;;;;18.01;100.00;101141.75;4879047;28;45450;-82
2022/10/02 06:50:18;;;;;;;;;1.00;0.00;;;;;18.15;100.00;101128.16;4859427;29;45365;-83
2022/10/02 06:53:31;;;;;;;;;0.00;0.00;;;;;18.17;100.00;101135.31;4859200;29;45390;-83
2022/10/02 06:56:18;;;;;;;;;1.00;0.00;;;;;18.16;100.00;101136.22;4820697;29;44894;-83
2022/10/02 06:59:12;;;;;;;;;1.00;0.00;;;;;18.13;100.00;101138.94;4821023;29;44779;-84
2022/10/02 07:02:07;;;;;;;;;0.00;0.00;;;;;18.12;100.00;101136.28;4782846;29;45486;-83
2022/10/02 07:05:14;;;;;;;;;0.00;0.00;;;;;18.14;100.00;101143.44;4797029;29;45707;-81
2022/10/02 07:08:21;;;;;;;;;0.00;0.00;;;;;18.18;100.00;101138.91;4750631;29;45537;-82
2022/10/02 07:11:20;;;;;;;;;0.00;0.00;;;;;18.24;100.00;101137.94;4762136;29;44850;-82
2022/10/02 07:14:06;;;;;;;;;0.00;0.00;;;;;18.29;100.00;101136.97;4769613;29;44925;-81
2022/10/02 07:16:54;;;;;;;;;0.00;0.00;;;;;18.36;100.00;101127.00;4769585;29;45489;-83
2022/10/02 07:19:32;;;;;;;;;0.00;0.00;;;;;18.41;100.00;101133.25;4768175;29;45514;-82
2022/10/02 07:22:03;;;;;;;;;0.00;0.00;;;;;18.48;100.00;101139.44;4768768;29;45498;-81
2022/10/02 07:25:00;;;;;;;;;0.00;0.00;;;;;18.56;100.00;101129.47;4768334;29;44887;-82
2022/10/02 07:27:39;;;;;;;;;1.00;0.00;;;;;18.56;100.00;101138.47;4749785;30;46937;-83
2022/10/02 07:30:12;;;;;;;;;0.00;0.00;;;;;18.63;100.00;101143.75;4735990;30;45468;-82
2022/10/02 07:32:46;;;;;;;;;0.00;0.00;;;;;18.65;100.00;101150.03;4734106;29;45523;-81
2022/10/02 07:35:35;;;;;;;;;0.00;0.00;;;;;18.70;100.00;101148.16;4734122;30;44815;-81
2022/10/02 07:38:10;;;;;;;;;0.00;0.00;;;;;18.72;100.00;101141.84;4750059;29;45529;-82
2022/10/02 07:41:09;;;;;;;;;0.00;0.00;;;;;18.74;100.00;101148.13;4786734;29;45378;-83
2022/10/02 07:43:52;;;;;;;;;0.25;0.25;;;;;18.77;100.00;101139.09;4787311;29;44785;-82
2022/10/02 07:46:42;;;;;;;;;0.00;0.00;;;;;18.81;100.00;101143.56;4841830;29;45499;-82
2022/10/02 07:49:26;;;;;;;;;0.00;0.00;;;;;18.89;100.00;101156.94;4841181;29;45609;-82
2022/10/02 07:52:01;;;;;;;;;3.00;0.00;;;;;18.97;100.00;101142.41;4840926;29;44900;-82
2022/10/02 07:54:51;;;;;;;;;2.25;0.00;;;;;19.11;100.00;101144.03;4838935;29;45437;-82
2022/10/02 07:57:31;;;;;;;;;1.25;1.00;;;;;19.19;100.00;101156.47;4820415;29;45439;-82
2022/10/02 08:00:53;;;;;;;;;0.25;0.25;;;;;19.28;100.00;101151.88;4819643;29;47320;-83
2022/10/02 08:03:47;;;;;;;;;1.00;1.00;;;;;19.36;100.00;101163.41;4840356;29;45516;-83
2022/10/02 08:06:13;;;;;;;;;0.00;0.00;;;;;19.41;100.00;101163.34;4877645;29;45299;-81
2022/10/02 08:08:50;;;;;;;;;0.50;0.25;;;;;19.46;100.00;101172.28;4878896;29;45346;-82
2022/10/02 08:11:25;;;;;;;;;1.00;1.00;;;;;19.51;100.00;101164.97;4895482;29;47254;-83
2022/10/02 08:13:58;;;;;;;;;2.00;1.00;;;;;19.51;100.00;101165.88;4895799;29;46058;-82
2022/10/02 08:16:35;;;;;;;;;1.50;1.50;;;;;19.61;100.00;101166.59;4897819;29;45466;-81
2022/10/02 08:19:15;;;;;;;;;2.00;2.00;;;;;19.72;100.00;101161.09;4882473;29;44978;-82
2022/10/02 08:21:51;;;;;;;;;1.00;0.00;;;;;19.72;100.00;101177.28;4881527;29;47193;-82
2022/10/02 08:24:25;;;;;;;;;2.75;1.00;;;;;19.71;100.00;101173.69;4901249;28;45466;-82
2022/10/02 08:27:02;;;;;;;;;0.25;0.25;;;;;19.76;100.00;101193.38;4885176;28;45845;-83
2022/10/02 08:30:01;;;;;;;;;1.75;1.25;;;;;19.76;100.00;101195.19;4902130;28;45398;-83
2022/10/02 08:32:35;;;;;;;;;1.00;1.00;;;;;19.80;100.00;101185.25;4901437;28;45462;-83
2022/10/02 08:35:01;;;;;;;;;1.00;1.00;;;;;19.85;100.00;101180.66;4905142;29;45487;-83
2022/10/02 08:38:01;;;;;;;;;0.00;0.00;;;;;20.13;100.00;101183.75;4901517;29;45307;-82
2022/10/02 08:41:14;;;;;;;;;1.75;1.00;;;;;20.43;100.00;101193.06;4899127;29;45504;-82
2022/10/02 08:43:52;;;;;;;;;1.00;1.00;;;;;20.71;100.00;101182.63;4896715;29;46788;-83
2022/10/02 08:46:57;;;;;;;;;2.00;2.00;;;;;20.92;100.00;101189.38;4896645;29;45622;-82
2022/10/02 08:49:56;;;;;;;;;2.50;2.50;;;;;21.02;100.00;101187.38;4892581;29;45434;-82
2022/10/02 08:52:43;;;;;;;;;1.50;1.00;;;;;20.95;100.00;101194.75;4897607;29;45439;-82
2022/10/02 08:55:18;;;;;;;;;1.50;1.00;;;;;20.81;100.00;101191.44;4882060;29;47249;-82
2022/10/02 08:58:09;;;;;;;;;2.75;1.00;;;;;20.74;100.00;101182.59;4897502;29;45470;-81
2022/10/02 09:00:54;;;;;;;;;2.00;2.00;;;;;20.84;100.00;101194.06;4862455;29;45442;-82
2022/10/02 09:03:34;;;;;;;;;0.50;0.50;;;;;20.87;100.00;101185.03;4879451;29;45581;-83
2022/10/02 09:06:06;;;;;;;;;2.00;2.00;;;;;20.92;100.00;101193.91;4880379;29;45421;-82
2022/10/02 09:09:01;;;;;;;;;1.75;1.50;;;;;20.92;100.00;101189.38;4877326;29;45405;-82
2022/10/02 09:11:59;;;;;;;;;1.00;1.00;;;;;20.93;100.00;101196.59;4878792;29;45474;-82
2022/10/02 09:14:52;;;;;;;;;1.00;1.00;;;;;20.87;100.00;101194.03;4879098;29;45383;-82
2022/10/02 09:17:32;;;;;;;;;0.75;0.75;;;;;20.83;100.00;101188.72;4878273;29;45406;-83
2022/10/02 09:20:17;;;;;;;;;0.75;0.75;;;;;20.83;100.00;101189.59;4862134;29;45404;-83
2022/10/02 09:23:20;;;;;;;;;1.00;1.00;;;;;20.91;100.00;101182.22;4862665;29;45251;-83
2022/10/02 09:25:52;;;;;;;;;0.00;0.00;;;;;21.04;100.00;101177.41;4879832;29;44790;-83
2022/10/02 09:28:43;;;;;;;;;2.00;1.00;;;;;21.23;100.00;101180.59;4861429;29;46257;-83
2022/10/02 09:31:43;;;;;;;;;1.00;1.00;;;;;21.44;100.00;101167.53;4862332;29;45421;-82
2022/10/02 09:34:35;;;;;;;;;2.00;1.00;;;;;21.66;100.00;101171.47;4861593;29;45485;-83
2022/10/02 09:37:02;;;;;;;;;1.00;1.00;;;;;21.77;100.00;101174.81;4861410;29;45616;-83
2022/10/02 09:39:50;;;;;;;;;1.00;0.00;;;;;21.85;100.00;101181.84;4878509;29;46574;-83
2022/10/02 09:43:09;;;;;;;;;1.00;1.00;;;;;21.84;100.00;101171.94;4861912;29;45508;-83
2022/10/02 09:46:25;;;;;;;;;0.50;0.50;;;;;21.82;100.00;101171.97;4838104;29;45395;-81
2022/10/02 09:49:01;;;;;;;;;0.50;0.50;;;;;21.87;100.00;101174.56;4840813;29;45460;-81
2022/10/02 09:51:50;;;;;;;;;0.00;0.00;;;;;22.01;100.00;101177.78;4839925;29;45273;-82
2022/10/02 09:54:37;;;;;;;;;0.80;0.80;;;;;22.17;100.00;101184.56;4823642;29;45450;-82
2022/10/02 09:57:10;;;;;;;;;0.00;0.00;;;;;22.32;100.00;101177.91;4838875;29;45548;-82
2022/10/02 10:00:00;;;;;;;;;0.25;0.00;;;;;22.37;100.00;101175.06;4838801;29;45814;-82
2022/10/02 10:02:41;;;;;;;;;0.50;0.50;;;;;22.37;100.00;101185.91;4838134;29;45464;-82
2022/10/02 10:05:41;;;;;;;;;0.00;0.00;;;;;22.41;100.00;101184.88;4838659;29;45583;-82
2022/10/02 10:08:42;;;;;;;;;0.00;0.00;;;;;22.47;100.00;101183.81;4837149;29;45442;-83
2022/10/02 10:11:29;;;;;;;;;0.00;0.00;;;;;22.50;100.00;101187.34;4823271;29;45635;-83
2022/10/02 10:14:19;;;;;;;;;1.00;0.00;;;;;22.51;100.00;101186.41;4837655;29;45138;-83
2022/10/02 10:17:07;;;;;;;;;1.00;1.00;;;;;22.57;100.00;101188.03;4837537;29;45237;-82
2022/10/02 10:19:44;;;;;;;;;0.00;0.00;;;;;22.59;100.00;101179.88;4860133;29;44833;-83
2022/10/02 10:22:34;;;;;;;;;0.00;0.00;;;;;22.62;100.00;101177.94;4875680;29;44844;-82
2022/10/02 10:25:29;;;;;;;;;0.00;0.00;;;;;22.70;100.00;101169.59;4859496;29;46848;-81
2022/10/02 10:28:27;;;;;;;;;0.00;0.00;;;;;22.82;100.00;101168.34;4876477;29;45254;-81
2022/10/02 10:30:55;;;;;;;;;0.00;0.00;;;;;22.90;100.00;101180.72;4800502;29;45804;-81
2022/10/02 10:34:01;;;;;;;;;1.00;0.00;;;;;22.96;100.00;101169.69;4801573;29;45484;-81
2022/10/02 10:39:34;;;;;;;;;0.00;0.00;;;;;22.88;100.00;101174.47;4782413;29;45432;-82
2022/10/02 10:42:24;;;;;;;;;0.00;0.00;;;;;22.85;100.00;101171.84;4782711;29;45461;-82
2022/10/02 10:45:02;;;;;;;;;0.25;0.00;;;;;22.91;100.00;101173.50;4790949;29;44982;-82
2022/10/02 10:47:50;;;;;;;;;0.00;0.00;;;;;22.89;100.00;101181.69;4802873;29;46658;-81
2022/10/02 10:50:23;;;;;;;;;1.00;1.00;;;;;22.85;100.00;101177.28;4790906;29;44806;-83
2022/10/02 10:53:06;;;;;;;;;0.00;0.00;;;;;22.91;100.00;101182.53;4806142;29;45548;-82
2022/10/02 10:55:33;;;;;;;;;0.00;0.00;;;;;22.99;100.00;101165.13;4807029;29;45521;-83
2022/10/02 10:58:32;;;;;;;;;0.00;0.00;;;;;23.15;100.00;101163.75;4805985;29;47000;-83
2022/10/02 11:01:18;;;;;;;;;0.00;0.00;;;;;23.23;100.00;101175.25;4802804;29;45324;-84
2022/10/02 11:03:58;;;;;;;;;1.00;1.00;;;;;23.28;100.00;101180.53;4806163;29;45445;-82
2022/10/02 11:06:44;;;;;;;;;0.00;0.00;;;;;23.31;98.88;101175.91;4802336;29;45477;-82
2022/10/02 11:09:31;;;;;;;;;0.00;0.00;;;;;23.33;98.97;101173.13;4858899;29;47841;-82
2022/10/02 11:12:20;;;;;;;;;2.00;0.80;;;;;23.39;98.80;101174.75;4912164;29;45481;-81
2022/10/02 11:14:48;;;;;;;;;0.25;0.25;;;;;23.48;97.56;101178.06;4898985;29;44737;-82
2022/10/02 11:17:51;;;;;;;;;1.00;1.00;;;;;23.49;98.96;101184.34;4881743;29;45573;-81
2022/10/02 11:20:36;;;;;;;;;1.00;1.00;;;;;23.35;98.20;101168.53;4881737;29;46465;-83
2022/10/02 11:23:12;;;;;;;;;1.00;1.00;;;;;23.13;97.03;101180.06;4896529;29;45944;-83
2022/10/02 11:26:08;;;;;;;;;2.00;0.75;;;;;22.83;96.88;101184.56;4880294;29;45451;-82
2022/10/02 11:29:00;;;;;;;;;1.00;1.00;;;;;22.57;99.32;101178.09;4897711;29;44769;-83
2022/10/02 11:31:45;;;;;;;;;1.00;1.00;;;;;22.43;99.71;101193.84;4879976;29;47176;-82
2022/10/02 11:34:23;;;;;;;;;0.20;0.20;;;;;22.32;100.00;101187.88;4897631;29;44745;-82
2022/10/02 11:37:04;;;;;;;;;1.00;1.00;;;;;22.24;100.00;101195.28;4880365;29;44814;-82
2022/10/02 11:40:13;;;;;;;;;1.00;1.00;;;;;22.11;100.00;101184.75;4897996;29;45768;-82
2022/10/02 11:42:47;;;;;;;;;1.25;1.25;;;;;22.07;100.00;101214.66;4897836;29;45600;-81
2022/10/02 11:49:25;;;;;;;;;0.50;0.50;;;;;21.14;100.00;101232.19;4898863;29;45414;-82
2022/10/02 11:51:50;;;;;;;;;1.00;1.00;;;;;20.96;100.00;101220.84;4815063;29;45841;-82
2022/10/02 11:54:44;;;;;;;;;0.75;0.75;;;;;21.00;100.00;101226.19;4825665;29;47818;-82
2022/10/02 11:57:46;;;;;;;;;1.00;1.00;;;;;21.19;100.00;101222.19;4824163;29;45460;-82
2022/10/02 12:00:50;;;;;;;;;1.00;1.00;;;;;21.49;100.00;101222.41;4840850;29;45506;-82
2022/10/02 12:03:35;;;;;;;;;2.00;0.25;;;;;21.71;100.00;101212.88;4785807;29;45526;-82
2022/10/02 12:06:14;;;;;;;;;1.00;1.00;;;;;21.85;100.00;101219.75;4786185;29;46462;-82
2022/10/02 12:09:20;;;;;;;;;1.00;1.00;;;;;22.04;100.00;101214.78;4771401;29;45022;-82
2022/10/02 12:12:05;;;;;;;;;1.00;1.00;;;;;22.13;100.00;101212.69;4733435;30;45252;-82
2022/10/02 12:14:34;;;;;;;;;1.00;1.00;;;;;22.30;100.00;101212.28;4717882;30;44937;-81
2022/10/02 12:17:37;;;;;;;;;1.00;1.00;;;;;22.37;100.00;101211.16;4732097;30;46674;-82
2022/10/02 12:29:23;;;;;;;;;0.00;0.00;;;;;22.17;100.00;101217.09;4747866;30;44945;-82
2022/10/02 12:32:07;;;;;;;;;0.75;0.75;;;;;22.35;100.00;101214.84;4747419;30;45447;-81
2022/10/02 12:35:09;;;;;;;;;0.75;0.75;;;;;22.51;100.00;101216.22;4733698;30;45991;-82
2022/10/02 12:37:45;;;;;;;;;1.00;1.00;;;;;22.73;100.00;101199.34;4735444;29;44910;-82
2022/10/02 12:40:44;;;;;;;;;1.00;1.00;;;;;23.01;100.00;101203.97;4756196;29;48233;-82
2022/10/02 12:43:26;;;;;;;;;0.00;0.00;;;;;23.06;100.00;101196.59;4804793;29;45373;-81
2022/10/02 12:46:39;;;;;;;;;0.00;0.00;;;;;23.02;100.00;101200.31;4837605;29;45481;-82